sensor_id;sensor_type;location;lat;lon;timestamp;pressure;altitude;pressure_sealevel;temperature;humidity
36234;BME280;43467;50.890;5.982;2022-09-20T00:03:28;100943.41;;;13.43;80.75
36234;BME280;43467;50.890;5.982;2022-09-20T00:05:53;100941.69;;;13.42;80.74
36234;BME280;43467;50.890;5.982;2022-09-20T00:08:19;100940.47;;;13.49;80.51
36234;BME280;43467;50.890;5.982;2022-09-20T00:10:44;100948.88;;;13.40;81.16
36234;BME280;43467;50.890;5.982;2022-09-20T00:13:12;100949.09;;;13.36;81.07
36234;BME280;43467;50.890;5.982;2022-09-20T00:15:44;100950.59;;;13.41;81.01
36234;BME280;43467;50.890;5.982;2022-09-20T00:18:10;100949.66;;;13.42;80.94
36234;BME280;43467;50.890;5.982;2022-09-20T00:20:43;100949.97;;;13.36;80.91
36234;BME280;43467;50.890;5.982;2022-09-20T00:23:09;100950.59;;;13.41;80.86
36234;BME280;43467;50.890;5.982;2022-09-20T00:25:34;100953.56;;;13.35;80.90
36234;BME280;43467;50.890;5.982;2022-09-20T00:27:59;100955.00;;;13.42;80.83
36234;BME280;43467;50.890;5.982;2022-09-20T00:30:25;100941.63;;;13.44;80.58
36234;BME280;43467;50.890;5.982;2022-09-20T00:32:51;100941.91;;;13.38;80.45
36234;BME280;43467;50.890;5.982;2022-09-20T00:35:16;100952.28;;;13.44;80.09
36234;BME280;43467;50.890;5.982;2022-09-20T00:37:42;100947.19;;;13.19;81.25
36234;BME280;43467;50.890;5.982;2022-09-20T00:40:12;100945.38;;;13.40;80.28
36234;BME280;43467;50.890;5.982;2022-09-20T00:42:37;100945.78;;;13.49;80.04
36234;BME280;43467;50.890;5.982;2022-09-20T00:45:18;100947.50;;;13.50;79.77
36234;BME280;43467;50.890;5.982;2022-09-20T00:53:13;100955.94;;;13.60;79.09
36234;BME280;43467;50.890;5.982;2022-09-20T00:55:48;100955.84;;;13.62;78.92
36234;BME280;43467;50.890;5.982;2022-09-20T00:58:16;100947.25;;;13.57;78.21
36234;BME280;43467;50.890;5.982;2022-09-20T01:00:43;100946.94;;;13.63;78.27
36234;BME280;43467;50.890;5.982;2022-09-20T01:03:09;100950.38;;;13.46;79.21
36234;BME280;43467;50.890;5.982;2022-09-20T01:05:38;100942.56;;;13.43;79.29
36234;BME280;43467;50.890;5.982;2022-09-20T01:08:04;100939.22;;;13.38;79.35
36234;BME280;43467;50.890;5.982;2022-09-20T01:10:31;100942.75;;;13.38;79.14
36234;BME280;43467;50.890;5.982;2022-09-20T01:12:57;100940.03;;;13.40;79.27
36234;BME280;43467;50.890;5.982;2022-09-20T01:15:24;100939.75;;;13.27;80.07
36234;BME280;43467;50.890;5.982;2022-09-20T01:17:52;100931.97;;;13.23;80.06
36234;BME280;43467;50.890;5.982;2022-09-20T01:20:25;100931.75;;;13.27;80.12
36234;BME280;43467;50.890;5.982;2022-09-20T01:25:57;100938.22;;;13.22;80.57
36234;BME280;43467;50.890;5.982;2022-09-20T01:28:29;100941.88;;;13.19;80.85
36234;BME280;43467;50.890;5.982;2022-09-20T01:31:16;100940.19;;;13.17;81.19
36234;BME280;43467;50.890;5.982;2022-09-20T01:34:00;100945.47;;;13.18;81.25
36234;BME280;43467;50.890;5.982;2022-09-20T01:41:44;100945.41;;;12.99;82.42
36234;BME280;43467;50.890;5.982;2022-09-20T01:44:29;100950.00;;;13.16;81.45
36234;BME280;43467;50.890;5.982;2022-09-20T01:47:13;100943.47;;;13.03;82.15
36234;BME280;43467;50.890;5.982;2022-09-20T01:49:59;100935.19;;;13.09;82.12
36234;BME280;43467;50.890;5.982;2022-09-20T01:58:05;100932.84;;;13.03;82.79
36234;BME280;43467;50.890;5.982;2022-09-20T02:15:22;100940.00;;;12.81;85.00
36234;BME280;43467;50.890;5.982;2022-09-20T02:20:55;100939.75;;;12.87;84.84
36234;BME280;43467;50.890;5.982;2022-09-20T02:46:32;100938.22;;;12.61;87.45
36234;BME280;43467;50.890;5.982;2022-09-20T02:49:13;100934.25;;;12.51;88.17
36234;BME280;43467;50.890;5.982;2022-09-20T02:52:10;100928.78;;;12.54;88.13
36234;BME280;43467;50.890;5.982;2022-09-20T03:02:38;100922.63;;;12.74;86.73
36234;BME280;43467;50.890;5.982;2022-09-20T03:05:24;100921.69;;;12.75;86.74
36234;BME280;43467;50.890;5.982;2022-09-20T03:11:04;100923.28;;;12.79;86.29
36234;BME280;43467;50.890;5.982;2022-09-20T03:22:04;100914.31;;;12.81;86.68
36234;BME280;43467;50.890;5.982;2022-09-20T03:27:41;100920.34;;;12.85;86.60
36234;BME280;43467;50.890;5.982;2022-09-20T03:30:38;100916.09;;;12.81;86.94
36234;BME280;43467;50.890;5.982;2022-09-20T03:38:32;100915.56;;;12.73;87.14
36234;BME280;43467;50.890;5.982;2022-09-20T03:47:01;100919.91;;;12.55;88.67
36234;BME280;43467;50.890;5.982;2022-09-20T03:49:56;100921.56;;;12.57;88.74
36234;BME280;43467;50.890;5.982;2022-09-20T03:53:02;100921.88;;;12.50;89.56
36234;BME280;43467;50.890;5.982;2022-09-20T03:55:41;100921.25;;;12.43;90.05
36234;BME280;43467;50.890;5.982;2022-09-20T03:58:14;100913.91;;;12.50;89.75
36234;BME280;43467;50.890;5.982;2022-09-20T04:06:28;100923.41;;;12.55;89.74
36234;BME280;43467;50.890;5.982;2022-09-20T04:09:28;100933.03;;;12.58;90.14
36234;BME280;43467;50.890;5.982;2022-09-20T04:17:56;100944.59;;;12.57;89.66
36234;BME280;43467;50.890;5.982;2022-09-20T04:20:30;100944.78;;;12.52;90.25
36234;BME280;43467;50.890;5.982;2022-09-20T04:23:07;100941.81;;;12.60;89.65
36234;BME280;43467;50.890;5.982;2022-09-20T04:25:41;100928.78;;;12.54;89.70
36234;BME280;43467;50.890;5.982;2022-09-20T04:28:14;100942.25;;;12.49;90.03
36234;BME280;43467;50.890;5.982;2022-09-20T04:30:42;100943.88;;;12.53;89.93
36234;BME280;43467;50.890;5.982;2022-09-20T04:33:31;100942.63;;;12.62;89.63
36234;BME280;43467;50.890;5.982;2022-09-20T05:02:13;100958.97;;;12.51;90.37
36234;BME280;43467;50.890;5.982;2022-09-20T05:05:03;100964.31;;;12.51;90.32
36234;BME280;43467;50.890;5.982;2022-09-20T05:21:35;100970.81;;;12.65;89.94
36234;BME280;43467;50.890;5.982;2022-09-20T05:29:55;100979.13;;;12.57;91.56
36234;BME280;43467;50.890;5.982;2022-09-20T05:32:45;100972.06;;;12.56;90.97
36234;BME280;43467;50.890;5.982;2022-09-20T05:35:23;100978.34;;;12.55;91.06
36234;BME280;43467;50.890;5.982;2022-09-20T05:43:36;100979.06;;;12.58;90.61
36234;BME280;43467;50.890;5.982;2022-09-20T05:46:17;100986.91;;;12.62;90.87
36234;BME280;43467;50.890;5.982;2022-09-20T05:48:57;100979.72;;;12.64;90.70
36234;BME280;43467;50.890;5.982;2022-09-20T06:00:05;100992.47;;;12.55;91.54
36234;BME280;43467;50.890;5.982;2022-09-20T06:05:28;100999.88;;;12.47;92.17
36234;BME280;43467;50.890;5.982;2022-09-20T06:10:42;101003.34;;;12.49;91.64
36234;BME280;43467;50.890;5.982;2022-09-20T06:16:00;101011.50;;;12.67;90.51
36234;BME280;43467;50.890;5.982;2022-09-20T06:18:32;101003.91;;;12.57;90.53
36234;BME280;43467;50.890;5.982;2022-09-20T06:23:44;101010.28;;;12.53;91.09
36234;BME280;43467;50.890;5.982;2022-09-20T06:26:20;101005.63;;;12.58;91.09
36234;BME280;43467;50.890;5.982;2022-09-20T06:28:58;100999.88;;;12.69;90.33
36234;BME280;43467;50.890;5.982;2022-09-20T06:31:25;100991.91;;;12.47;90.31
36234;BME280;43467;50.890;5.982;2022-09-20T06:33:56;100998.78;;;12.53;90.11
36234;BME280;43467;50.890;5.982;2022-09-20T06:36:31;100998.81;;;12.51;90.68
36234;BME280;43467;50.890;5.982;2022-09-20T06:42:21;100983.84;;;12.50;91.95
36234;BME280;43467;50.890;5.982;2022-09-20T06:44:47;100991.00;;;12.48;91.44
36234;BME280;43467;50.890;5.982;2022-09-20T06:47:13;100991.88;;;12.49;91.65
36234;BME280;43467;50.890;5.982;2022-09-20T06:49:39;100990.94;;;12.50;92.27
36234;BME280;43467;50.890;5.982;2022-09-20T06:52:20;100993.59;;;12.50;91.59
36234;BME280;43467;50.890;5.982;2022-09-20T06:54:49;100995.53;;;12.46;91.79
36234;BME280;43467;50.890;5.982;2022-09-20T06:57:18;100990.25;;;12.45;91.62
36234;BME280;43467;50.890;5.982;2022-09-20T06:59:47;100985.97;;;12.42;92.03
36234;BME280;43467;50.890;5.982;2022-09-20T07:02:12;100993.91;;;12.42;91.95
36234;BME280;43467;50.890;5.982;2022-09-20T07:04:37;101002.63;;;12.46;91.78
36234;BME280;43467;50.890;5.982;2022-09-20T07:07:05;101010.28;;;12.53;91.19
36234;BME280;43467;50.890;5.982;2022-09-20T07:09:31;101017.41;;;12.51;91.53
36234;BME280;43467;50.890;5.982;2022-09-20T07:11:57;101014.72;;;12.53;91.09
36234;BME280;43467;50.890;5.982;2022-09-20T07:14:24;101010.41;;;12.50;91.26
36234;BME280;43467;50.890;5.982;2022-09-20T07:16:50;101014.75;;;12.51;91.26
36234;BME280;43467;50.890;5.982;2022-09-20T07:19:16;101019.28;;;12.49;91.45
36234;BME280;43467;50.890;5.982;2022-09-20T07:21:41;101022.13;;;12.45;92.36
36234;BME280;43467;50.890;5.982;2022-09-20T07:24:06;101013.66;;;12.57;91.77
36234;BME280;43467;50.890;5.982;2022-09-20T07:26:32;101014.16;;;12.67;91.12
36234;BME280;43467;50.890;5.982;2022-09-20T07:28:59;101011.38;;;12.70;90.53
36234;BME280;43467;50.890;5.982;2022-09-20T07:31:27;101018.41;;;12.71;90.36
36234;BME280;43467;50.890;5.982;2022-09-20T07:33:53;101008.66;;;12.71;90.49
36234;BME280;43467;50.890;5.982;2022-09-20T07:36:19;101024.28;;;12.79;90.96
36234;BME280;43467;50.890;5.982;2022-09-20T07:38:49;101012.84;;;12.97;90.11
36234;BME280;43467;50.890;5.982;2022-09-20T07:41:15;101020.69;;;13.00;89.18
36234;BME280;43467;50.890;5.982;2022-09-20T07:43:43;101027.88;;;12.98;89.15
36234;BME280;43467;50.890;5.982;2022-09-20T07:46:09;101034.41;;;13.11;88.85
36234;BME280;43467;50.890;5.982;2022-09-20T07:48:38;101027.88;;;12.98;87.63
36234;BME280;43467;50.890;5.982;2022-09-20T07:51:09;101031.78;;;13.10;87.02
36234;BME280;43467;50.890;5.982;2022-09-20T07:53:35;101036.75;;;12.97;87.33
36234;BME280;43467;50.890;5.982;2022-09-20T07:56:03;101032.84;;;13.05;87.07
36234;BME280;43467;50.890;5.982;2022-09-20T07:58:32;101038.44;;;12.99;86.73
36234;BME280;43467;50.890;5.982;2022-09-20T08:01:02;101041.81;;;13.03;86.47
36234;BME280;43467;50.890;5.982;2022-09-20T08:03:29;101046.84;;;13.11;86.78
36234;BME280;43467;50.890;5.982;2022-09-20T08:05:59;101042.75;;;13.02;86.03
36234;BME280;43467;50.890;5.982;2022-09-20T08:08:25;101051.16;;;13.13;86.00
36234;BME280;43467;50.890;5.982;2022-09-20T08:10:50;101042.00;;;13.20;86.01
36234;BME280;43467;50.890;5.982;2022-09-20T08:13:15;101045.31;;;13.25;85.28
36234;BME280;43467;50.890;5.982;2022-09-20T08:15:41;101055.34;;;13.19;83.34
36234;BME280;43467;50.890;5.982;2022-09-20T08:18:08;101056.72;;;13.07;83.97
36234;BME280;43467;50.890;5.982;2022-09-20T08:20:37;101058.00;;;13.19;83.73
36234;BME280;43467;50.890;5.982;2022-09-20T08:23:04;101055.75;;;13.30;84.62
36234;BME280;43467;50.890;5.982;2022-09-20T08:25:29;101048.63;;;13.30;84.49
36234;BME280;43467;50.890;5.982;2022-09-20T08:27:55;101056.41;;;13.35;84.48
36234;BME280;43467;50.890;5.982;2022-09-20T08:30:20;101057.66;;;13.46;83.75
36234;BME280;43467;50.890;5.982;2022-09-20T08:32:47;101058.91;;;13.58;83.62
36234;BME280;43467;50.890;5.982;2022-09-20T08:35:12;101058.69;;;13.63;83.52
36234;BME280;43467;50.890;5.982;2022-09-20T08:37:39;101061.63;;;13.77;83.15
36234;BME280;43467;50.890;5.982;2022-09-20T08:40:06;101056.09;;;13.81;83.46
36234;BME280;43467;50.890;5.982;2022-09-20T08:42:35;101062.19;;;13.83;82.21
36234;BME280;43467;50.890;5.982;2022-09-20T08:45:13;101074.56;;;13.84;82.00
36234;BME280;43467;50.890;5.982;2022-09-20T08:47:47;101063.97;;;13.83;81.84
36234;BME280;43467;50.890;5.982;2022-09-20T08:50:13;101075.56;;;13.82;82.27
36234;BME280;43467;50.890;5.982;2022-09-20T08:52:43;101065.09;;;13.98;81.60
36234;BME280;43467;50.890;5.982;2022-09-20T08:55:14;101074.44;;;14.06;80.58
36234;BME280;43467;50.890;5.982;2022-09-20T08:57:41;101051.84;;;13.96;80.12
36234;BME280;43467;50.890;5.982;2022-09-20T09:00:15;101076.88;;;13.92;79.63
36234;BME280;43467;50.890;5.982;2022-09-20T09:02:42;101073.25;;;13.74;79.99
36234;BME280;43467;50.890;5.982;2022-09-20T09:07:56;101070.84;;;13.88;81.16
36234;BME280;43467;50.890;5.982;2022-09-20T09:10:35;101074.63;;;13.83;80.67
36234;BME280;43467;50.890;5.982;2022-09-20T09:13:03;101075.84;;;13.76;80.28
36234;BME280;43467;50.890;5.982;2022-09-20T09:15:33;101067.72;;;13.79;81.17
36234;BME280;43467;50.890;5.982;2022-09-20T09:17:59;101065.41;;;13.90;81.36
36234;BME280;43467;50.890;5.982;2022-09-20T09:20:26;101062.69;;;14.10;81.05
36234;BME280;43467;50.890;5.982;2022-09-20T09:23:03;101053.63;;;14.14;80.37
36234;BME280;43467;50.890;5.982;2022-09-20T09:25:31;101054.22;;;14.21;79.59
36234;BME280;43467;50.890;5.982;2022-09-20T09:33:22;101062.38;;;14.36;77.48
36234;BME280;43467;50.890;5.982;2022-09-20T09:36:11;101066.31;;;14.28;77.10
36234;BME280;43467;50.890;5.982;2022-09-20T09:38:40;101059.91;;;14.13;77.72
36234;BME280;43467;50.890;5.982;2022-09-20T09:44:03;101062.66;;;14.30;75.69
36234;BME280;43467;50.890;5.982;2022-09-20T09:46:33;101069.56;;;14.34;74.34
36234;BME280;43467;50.890;5.982;2022-09-20T09:49:06;101061.56;;;14.16;74.58
36234;BME280;43467;50.890;5.982;2022-09-20T09:51:34;101066.50;;;14.23;74.82
36234;BME280;43467;50.890;5.982;2022-09-20T09:54:01;101061.63;;;14.33;75.32
36234;BME280;43467;50.890;5.982;2022-09-20T10:05:03;101056.72;;;14.24;74.06
36234;BME280;43467;50.890;5.982;2022-09-20T10:07:36;101056.44;;;14.30;73.26
36234;BME280;43467;50.890;5.982;2022-09-20T10:10:33;101064.22;;;14.16;72.87
36234;BME280;43467;50.890;5.982;2022-09-20T10:15:50;101052.91;;;14.29;72.56
36234;BME280;43467;50.890;5.982;2022-09-20T10:29:33;101069.72;;;14.50;69.97
36234;BME280;43467;50.890;5.982;2022-09-20T10:37:58;101051.31;;;14.80;68.16
36234;BME280;43467;50.890;5.982;2022-09-20T10:49:25;101059.19;;;14.83;63.09
36234;BME280;43467;50.890;5.982;2022-09-20T10:54:50;101053.84;;;14.83;65.19
36234;BME280;43467;50.890;5.982;2022-09-20T11:00:24;101051.34;;;14.97;61.98
36234;BME280;43467;50.890;5.982;2022-09-20T11:08:46;101054.56;;;15.04;63.71
36234;BME280;43467;50.890;5.982;2022-09-20T11:11:22;101057.31;;;15.02;59.77
36234;BME280;43467;50.890;5.982;2022-09-20T11:16:32;101051.00;;;15.20;60.00
36234;BME280;43467;50.890;5.982;2022-09-20T11:19:27;101057.84;;;15.26;59.55
36234;BME280;43467;50.890;5.982;2022-09-20T11:22:04;101061.63;;;15.22;56.86
36234;BME280;43467;50.890;5.982;2022-09-20T11:27:21;101062.19;;;15.11;57.00
36234;BME280;43467;50.890;5.982;2022-09-20T11:29:54;101064.44;;;15.19;57.26
36234;BME280;43467;50.890;5.982;2022-09-20T11:35:33;101050.38;;;15.50;58.43
36234;BME280;43467;50.890;5.982;2022-09-20T11:38:09;101060.41;;;15.45;58.20
36234;BME280;43467;50.890;5.982;2022-09-20T11:40:46;101057.16;;;15.57;56.78
36234;BME280;43467;50.890;5.982;2022-09-20T11:43:14;101053.22;;;15.64;55.55
36234;BME280;43467;50.890;5.982;2022-09-20T11:45:42;101059.69;;;15.75;56.65
36234;BME280;43467;50.890;5.982;2022-09-20T11:48:15;101059.63;;;15.77;55.68
36234;BME280;43467;50.890;5.982;2022-09-20T11:56:40;101074.56;;;15.47;53.73
36234;BME280;43467;50.890;5.982;2022-09-20T11:59:29;101070.03;;;15.31;54.18
36234;BME280;43467;50.890;5.982;2022-09-20T12:01:59;101064.63;;;15.16;54.48
36234;BME280;43467;50.890;5.982;2022-09-20T12:04:29;101070.25;;;15.10;54.60
36234;BME280;43467;50.890;5.982;2022-09-20T12:07:23;101065.78;;;15.10;55.15
36234;BME280;43467;50.890;5.982;2022-09-20T12:09:59;101078.66;;;15.19;55.25
36234;BME280;43467;50.890;5.982;2022-09-20T12:14:58;101078.16;;;15.28;57.33
36234;BME280;43467;50.890;5.982;2022-09-20T12:28:51;101076.91;;;15.18;58.75
36234;BME280;43467;50.890;5.982;2022-09-20T12:39:20;101083.91;;;15.21;59.86
36234;BME280;43467;50.890;5.982;2022-09-20T12:41:55;101078.50;;;15.22;60.38
36234;BME280;43467;50.890;5.982;2022-09-20T12:44:46;101079.91;;;15.29;60.62
36234;BME280;43467;50.890;5.982;2022-09-20T12:47:29;101075.34;;;15.31;60.14
36234;BME280;43467;50.890;5.982;2022-09-20T12:49:57;101075.72;;;15.41;61.33
36234;BME280;43467;50.890;5.982;2022-09-20T13:03:30;101085.09;;;15.50;62.44
36234;BME280;43467;50.890;5.982;2022-09-20T13:11:18;101085.53;;;15.58;62.49
36234;BME280;43467;50.890;5.982;2022-09-20T13:13:54;101091.00;;;15.56;61.50
36234;BME280;43467;50.890;5.982;2022-09-20T13:19:24;101093.56;;;15.58;62.03
36234;BME280;43467;50.890;5.982;2022-09-20T13:24:32;101096.47;;;15.53;61.47
36234;BME280;43467;50.890;5.982;2022-09-20T13:27:05;101092.84;;;15.54;61.63
36234;BME280;43467;50.890;5.982;2022-09-20T13:29:36;101088.06;;;15.61;61.85
36234;BME280;43467;50.890;5.982;2022-09-20T13:32:25;101081.00;;;15.60;61.57
36234;BME280;43467;50.890;5.982;2022-09-20T13:37:36;101071.75;;;15.50;61.16
36234;BME280;43467;50.890;5.982;2022-09-20T13:40:03;101082.97;;;15.56;61.18
36234;BME280;43467;50.890;5.982;2022-09-20T13:42:30;101079.34;;;15.57;61.38
36234;BME280;43467;50.890;5.982;2022-09-20T13:44:57;101083.22;;;15.52;61.16
36234;BME280;43467;50.890;5.982;2022-09-20T13:47:26;101090.13;;;15.56;61.36
36234;BME280;43467;50.890;5.982;2022-09-20T13:49:58;101086.00;;;15.66;61.16
36234;BME280;43467;50.890;5.982;2022-09-20T13:52:26;101079.91;;;15.64;61.36
36234;BME280;43467;50.890;5.982;2022-09-20T13:54:52;101066.38;;;15.67;61.71
36234;BME280;43467;50.890;5.982;2022-09-20T13:57:26;101069.63;;;15.89;61.23
36234;BME280;43467;50.890;5.982;2022-09-20T13:59:52;101071.09;;;15.95;61.10
36234;BME280;43467;50.890;5.982;2022-09-20T14:02:28;101078.84;;;15.99;59.99
36234;BME280;43467;50.890;5.982;2022-09-20T14:04:58;101078.94;;;15.98;59.43
36234;BME280;43467;50.890;5.982;2022-09-20T14:07:26;101075.25;;;16.00;60.22
36234;BME280;43467;50.890;5.982;2022-09-20T14:09:53;101078.44;;;16.07;59.97
36234;BME280;43467;50.890;5.982;2022-09-20T14:12:19;101076.13;;;16.01;59.66
36234;BME280;43467;50.890;5.982;2022-09-20T14:14:46;101079.22;;;16.24;60.15
36234;BME280;43467;50.890;5.982;2022-09-20T14:17:15;101073.88;;;16.40;58.72
36234;BME280;43467;50.890;5.982;2022-09-20T14:19:48;101071.31;;;16.54;57.15
36234;BME280;43467;50.890;5.982;2022-09-20T14:22:19;101063.75;;;16.62;56.43
36234;BME280;43467;50.890;5.982;2022-09-20T14:24:57;101068.00;;;16.81;57.81
36234;BME280;43467;50.890;5.982;2022-09-20T14:27:23;101062.06;;;16.91;57.24
36234;BME280;43467;50.890;5.982;2022-09-20T14:29:53;101071.88;;;16.91;55.40
36234;BME280;43467;50.890;5.982;2022-09-20T14:37:32;101058.78;;;16.55;54.07
36234;BME280;43467;50.890;5.982;2022-09-20T14:40:00;101064.22;;;16.53;54.84
36234;BME280;43467;50.890;5.982;2022-09-20T14:42:34;101060.78;;;16.51;55.38
36234;BME280;43467;50.890;5.982;2022-09-20T14:45:02;101053.19;;;16.44;55.60
36234;BME280;43467;50.890;5.982;2022-09-20T14:47:36;101066.91;;;16.38;55.89
36234;BME280;43467;50.890;5.982;2022-09-20T14:51:06;101066.22;;;16.34;56.02
36234;BME280;43467;50.890;5.982;2022-09-20T14:55:30;101061.47;;;16.23;57.58
36234;BME280;43467;50.890;5.982;2022-09-20T14:58:03;101066.63;;;16.11;56.78
36234;BME280;43467;50.890;5.982;2022-09-20T15:00:45;101062.41;;;16.07;56.23
36234;BME280;43467;50.890;5.982;2022-09-20T15:03:13;101056.03;;;16.09;57.05
36234;BME280;43467;50.890;5.982;2022-09-20T15:05:41;101045.50;;;16.06;57.09
36234;BME280;43467;50.890;5.982;2022-09-20T15:08:11;101068.19;;;16.15;57.39
36234;BME280;43467;50.890;5.982;2022-09-20T15:10:38;101053.81;;;16.17;56.75
36234;BME280;43467;50.890;5.982;2022-09-20T15:13:04;101060.09;;;16.16;55.77
36234;BME280;43467;50.890;5.982;2022-09-20T15:15:31;101051.91;;;16.19;55.84
36234;BME280;43467;50.890;5.982;2022-09-20T15:17:56;101052.09;;;16.16;55.98
36234;BME280;43467;50.890;5.982;2022-09-20T15:20:21;101058.72;;;16.09;56.19
36234;BME280;43467;50.890;5.982;2022-09-20T15:22:47;101055.19;;;16.09;56.45
36234;BME280;43467;50.890;5.982;2022-09-20T15:25:18;101052.41;;;16.10;57.68
36234;BME280;43467;50.890;5.982;2022-09-20T15:27:45;101053.44;;;15.92;59.01
36234;BME280;43467;50.890;5.982;2022-09-20T15:30:15;101044.53;;;15.76;59.88
36234;BME280;43467;50.890;5.982;2022-09-20T15:32:43;101048.75;;;15.80;60.32
36234;BME280;43467;50.890;5.982;2022-09-20T15:35:09;101044.78;;;15.71;60.73
36234;BME280;43467;50.890;5.982;2022-09-20T15:37:35;101047.41;;;15.39;61.21
36234;BME280;43467;50.890;5.982;2022-09-20T15:40:02;101047.94;;;15.45;61.49
36234;BME280;43467;50.890;5.982;2022-09-20T15:42:28;101044.56;;;15.42;61.41
36234;BME280;43467;50.890;5.982;2022-09-20T15:44:59;101035.00;;;15.55;61.46
36234;BME280;43467;50.890;5.982;2022-09-20T15:47:24;101043.56;;;15.44;61.40
36234;BME280;43467;50.890;5.982;2022-09-20T15:49:52;101045.19;;;15.47;61.16
36234;BME280;43467;50.890;5.982;2022-09-20T15:52:17;101037.66;;;15.55;61.10
36234;BME280;43467;50.890;5.982;2022-09-20T15:54:48;101046.31;;;15.60;60.83
36234;BME280;43467;50.890;5.982;2022-09-20T15:57:14;101043.63;;;15.60;61.47
36234;BME280;43467;50.890;5.982;2022-09-20T15:59:40;101043.56;;;15.44;61.93
36234;BME280;43467;50.890;5.982;2022-09-20T16:02:05;101047.94;;;15.62;61.99
36234;BME280;43467;50.890;5.982;2022-09-20T16:04:31;101051.22;;;15.67;62.19
36234;BME280;43467;50.890;5.982;2022-09-20T16:06:58;101054.41;;;15.74;62.05
36234;BME280;43467;50.890;5.982;2022-09-20T16:09:24;101048.63;;;15.66;61.93
36234;BME280;43467;50.890;5.982;2022-09-20T16:11:49;101051.66;;;15.60;62.07
36234;BME280;43467;50.890;5.982;2022-09-20T16:14:15;101051.25;;;15.50;61.85
36234;BME280;43467;50.890;5.982;2022-09-20T16:16:40;101061.38;;;15.44;62.73
36234;BME280;43467;50.890;5.982;2022-09-20T16:19:06;101059.00;;;15.38;63.12
36234;BME280;43467;50.890;5.982;2022-09-20T16:21:49;101060.28;;;15.48;63.00
36234;BME280;43467;50.890;5.982;2022-09-20T16:24:18;101052.50;;;15.43;63.04
36234;BME280;43467;50.890;5.982;2022-09-20T16:26:44;101064.75;;;15.47;62.93
36234;BME280;43467;50.890;5.982;2022-09-20T16:29:11;101059.25;;;15.50;63.23
36234;BME280;43467;50.890;5.982;2022-09-20T16:31:41;101061.88;;;15.52;63.11
36234;BME280;43467;50.890;5.982;2022-09-20T16:34:21;101061.44;;;15.42;62.49
36234;BME280;43467;50.890;5.982;2022-09-20T16:36:48;101069.63;;;15.39;61.90
36234;BME280;43467;50.890;5.982;2022-09-20T16:39:15;101060.75;;;15.21;62.74
36234;BME280;43467;50.890;5.982;2022-09-20T16:41:42;101066.03;;;15.23;63.04
36234;BME280;43467;50.890;5.982;2022-09-20T16:44:09;101066.94;;;15.22;62.95
36234;BME280;43467;50.890;5.982;2022-09-20T16:46:35;101068.38;;;15.12;63.22
36234;BME280;43467;50.890;5.982;2022-09-20T16:49:07;101068.97;;;15.17;62.73
36234;BME280;43467;50.890;5.982;2022-09-20T16:51:37;101066.47;;;15.14;63.50
36234;BME280;43467;50.890;5.982;2022-09-20T16:54:05;101066.19;;;15.20;63.02
36234;BME280;43467;50.890;5.982;2022-09-20T16:56:33;101066.19;;;15.20;63.42
36234;BME280;43467;50.890;5.982;2022-09-20T16:59:03;101058.88;;;15.23;63.17
36234;BME280;43467;50.890;5.982;2022-09-20T17:01:30;101061.94;;;15.16;63.21
36234;BME280;43467;50.890;5.982;2022-09-20T17:03:56;101066.47;;;15.14;63.24
36234;BME280;43467;50.890;5.982;2022-09-20T17:06:22;101067.75;;;15.07;63.08
36234;BME280;43467;50.890;5.982;2022-09-20T17:08:51;101066.19;;;15.03;63.39
36234;BME280;43467;50.890;5.982;2022-09-20T17:11:19;101073.16;;;15.05;63.61
36234;BME280;43467;50.890;5.982;2022-09-20T17:13:47;101079.56;;;15.01;63.68
36234;BME280;43467;50.890;5.982;2022-09-20T17:16:17;101078.47;;;15.05;63.75
36234;BME280;43467;50.890;5.982;2022-09-20T17:18:43;101080.38;;;15.03;64.05
36234;BME280;43467;50.890;5.982;2022-09-20T17:21:14;101081.31;;;15.02;64.12
36234;BME280;43467;50.890;5.982;2022-09-20T17:23:41;101079.09;;;14.93;64.43
36234;BME280;43467;50.890;5.982;2022-09-20T17:26:10;101078.09;;;14.96;64.85
36234;BME280;43467;50.890;5.982;2022-09-20T17:28:38;101083.88;;;14.86;65.03
36234;BME280;43467;50.890;5.982;2022-09-20T17:31:05;101093.31;;;14.94;64.95
36234;BME280;43467;50.890;5.982;2022-09-20T17:33:32;101096.03;;;14.92;65.14
36234;BME280;43467;50.890;5.982;2022-09-20T17:35:58;101092.41;;;14.76;65.56
36234;BME280;43467;50.890;5.982;2022-09-20T17:38:29;101088.50;;;14.83;65.56
36234;BME280;43467;50.890;5.982;2022-09-20T17:41:16;101098.09;;;14.87;65.60
36234;BME280;43467;50.890;5.982;2022-09-20T17:43:42;101104.03;;;14.92;65.54
36234;BME280;43467;50.890;5.982;2022-09-20T17:46:12;101103.09;;;14.93;65.20
36234;BME280;43467;50.890;5.982;2022-09-20T17:48:39;101103.25;;;14.90;65.63
36234;BME280;43467;50.890;5.982;2022-09-20T17:51:06;101103.41;;;14.87;65.72
36234;BME280;43467;50.890;5.982;2022-09-20T17:53:33;101107.25;;;14.81;65.54
36234;BME280;43467;50.890;5.982;2022-09-20T17:56:00;101109.47;;;14.72;65.93
36234;BME280;43467;50.890;5.982;2022-09-20T17:58:26;101099.34;;;14.61;65.90
36234;BME280;43467;50.890;5.982;2022-09-20T18:00:52;101114.97;;;14.69;65.84
36234;BME280;43467;50.890;5.982;2022-09-20T18:03:23;101110.50;;;14.69;65.83
36234;BME280;43467;50.890;5.982;2022-09-20T18:05:49;101120.09;;;14.73;65.99
36234;BME280;43467;50.890;5.982;2022-09-20T18:08:15;101116.63;;;14.71;66.31
36234;BME280;43467;50.890;5.982;2022-09-20T18:10:52;101117.69;;;14.67;66.96
36234;BME280;43467;50.890;5.982;2022-09-20T18:13:17;101134.06;;;14.60;67.26
36234;BME280;43467;50.890;5.982;2022-09-20T18:15:43;101134.38;;;14.54;67.67
36234;BME280;43467;50.890;5.982;2022-09-20T18:18:09;101134.38;;;14.54;67.78
36234;BME280;43467;50.890;5.982;2022-09-20T18:20:36;101142.06;;;14.60;67.94